Hampton, NE (68843)

9:55 AM CDT on March 28, 2017 (GMT -0500)
West of Bradshaw | | Change Station
Active Advisory: Dense Fog Advisory

Elev 1739 ft 40.88 °N, 97.81 °W | Updated 2 seconds ago

Partly Cloudy
Partly Cloudy
41.5 °F
Feels Like 39 °F
N
4.0
Wind Variable Wind from North
Gusts 9.0 mph

Today
High -- | Low -- °F
--% Chance of Precip.
Yesterday
High -- | Low -- °F
Precip. -- in
Pressure 30.09 in
Visibility 3.0 miles
Clouds Mostly Cloudy 100 ft
Windchill 39 °F
Dew Point 40 °F
Humidity 95%
Rainfall 0.00 in
Snow Depth Not available.
7:21 AM 7:52 PM
New Moon, 0% visible
METAR KAUH 281435Z AUTO 00000KT 3SM BR BKN001 04/04 A3009 RMK AO2 T00420042
Pressure 30.09 in
Visibility 3.0 miles
Clouds Mostly Cloudy 100 ft
Windchill 39 °F
Dew Point 40 °F
Humidity 95%
Rainfall 0.00 in
Snow Depth Not available.
7:21 AM 7:52 PM
New Moon, 0% visible
METAR KAUH 281435Z AUTO 00000KT 3SM BR BKN001 04/04 A3009 RMK AO2 T00420042

Get Your Daily Forecast Email!

Thanks for signing up!

Be on the lookout for a verification email in your inbox.

You'll start receiving severe weather alerts in your inbox..

×

10-Day Weather Forecast

Almanac

Astronomy

Mar. 28, 2017 Rise Set
Actual Time
Civil Twilight
Nautical Twilight
Astronomical Twilight
Moon
Length of Visible Light
Length of Day
Tomorrow will be .
, % of the Moon is Illuminated

Today's Extremes

State Highs State Lows

Community

WunderPhotos

Upload Photos

1,962,540 photos uploaded!

WunderBlog® & News

Nearby

Air Quality

  Air Quality AQ Index Pollutant
Not available.

Snow Depth

Station Depth Elevation

Earthquake Activity

City Distance Mag. Time & Date
Minimum magnitude displayed is 2.5.

Earthquake Activity

City Distance Mag. Time & Date
Minimum magnitude displayed is 2.5.

Coastal Water Temperatures

Place Temperature

Stations

Nearby Weather Stations

Station Location Temp. Windchill Dew Point Humidity Wind Precip. Elev Updated Type
                   

Watches & Warnings

Dense Fog Advisory
Issued: 9:53 AM CDT Mar. 28, 2017 – National Weather Service

... Dense fog advisory will expire at 10 am CDT this morning...

Visibilities have improved across the area. There could be a few
isolated locations with lower visibility, but those should improve
in the next hour or so. The dense fog advisory will be allowed to
expire.